Terminal Aerodrome Forecast
Issued by NWS

Home | Current Version | Previous Version | Graphics & Text | Print | Product List | Glossary On
Versions: 1 2 3 4 5 6 7 8 9 10 11 12 13 14 15 16 17 18 19 20 21 22 23 24
000
FTUS43 KICT 251139
TAFCNU
TAF
KCNU 251139Z 2512/2612 18007KT 1SM BR OVC002
     FM251300 30015G25KT P6SM VCSH SCT007 BKN025
     FM251500 09007KT P6SM BKN035
     FM251800 18012G20KT P6SM BKN050
     FM260000 17010KT P6SM VCTS BKN035CB
     FM260600 17007KT P6SM BKN015=

USA.gov is the U.S. government's official web portal to all federal, state and local government web resources and services.